sensor_id;sensor_type;location;lat;lon;timestamp;P1;durP1;ratioP1;P2;durP2;ratioP2
8540;SDS011;4308;51.294;6.590;2023-03-14T00:01:08;10.00;;;2.10;;
8540;SDS011;4308;51.294;6.590;2023-03-14T00:03:35;7.37;;;1.90;;
8540;SDS011;4308;51.294;6.590;2023-03-14T00:06:03;8.83;;;2.23;;
8540;SDS011;4308;51.294;6.590;2023-03-14T00:08:31;6.00;;;2.00;;
8540;SDS011;4308;51.294;6.590;2023-03-14T00:11:09;4.03;;;1.70;;
8540;SDS011;4308;51.294;6.590;2023-03-14T00:13:37;7.23;;;1.33;;
8540;SDS011;4308;51.294;6.590;2023-03-14T00:16:09;5.80;;;1.90;;
8540;SDS011;4308;51.294;6.590;2023-03-14T00:18:37;6.13;;;1.70;;
8540;SDS011;4308;51.294;6.590;2023-03-14T00:21:06;5.03;;;1.40;;
8540;SDS011;4308;51.294;6.590;2023-03-14T00:23:35;3.70;;;1.53;;
8540;SDS011;4308;51.294;6.590;2023-03-14T00:26:06;3.70;;;1.50;;
8540;SDS011;4308;51.294;6.590;2023-03-14T00:28:35;4.47;;;1.77;;
8540;SDS011;4308;51.294;6.590;2023-03-14T00:31:06;4.33;;;1.20;;
8540;SDS011;4308;51.294;6.590;2023-03-14T00:33:34;5.03;;;1.50;;
8540;SDS011;4308;51.294;6.590;2023-03-14T00:36:06;4.67;;;1.30;;
8540;SDS011;4308;51.294;6.590;2023-03-14T00:38:34;6.03;;;1.33;;
8540;SDS011;4308;51.294;6.590;2023-03-14T00:41:05;5.53;;;1.10;;
8540;SDS011;4308;51.294;6.590;2023-03-14T00:43:33;3.27;;;1.00;;
8540;SDS011;4308;51.294;6.590;2023-03-14T00:46:01;3.63;;;1.10;;
8540;SDS011;4308;51.294;6.590;2023-03-14T00:48:28;2.60;;;1.30;;
8540;SDS011;4308;51.294;6.590;2023-03-14T00:50:56;3.60;;;1.00;;
8540;SDS011;4308;51.294;6.590;2023-03-14T00:53:24;3.80;;;1.30;;
8540;SDS011;4308;51.294;6.590;2023-03-14T00:55:51;3.50;;;1.40;;
8540;SDS011;4308;51.294;6.590;2023-03-14T00:58:19;6.97;;;1.50;;
8540;SDS011;4308;51.294;6.590;2023-03-14T01:00:46;6.10;;;1.40;;
8540;SDS011;4308;51.294;6.590;2023-03-14T01:03:14;7.20;;;1.57;;
8540;SDS011;4308;51.294;6.590;2023-03-14T01:05:42;6.57;;;1.63;;
8540;SDS011;4308;51.294;6.590;2023-03-14T01:08:09;4.73;;;1.30;;
8540;SDS011;4308;51.294;6.590;2023-03-14T01:10:37;7.60;;;1.47;;
8540;SDS011;4308;51.294;6.590;2023-03-14T01:13:05;9.10;;;1.57;;
8540;SDS011;4308;51.294;6.590;2023-03-14T01:15:33;5.93;;;1.37;;
8540;SDS011;4308;51.294;6.590;2023-03-14T01:18:01;2.77;;;1.30;;
8540;SDS011;4308;51.294;6.590;2023-03-14T01:20:28;7.27;;;1.50;;
8540;SDS011;4308;51.294;6.590;2023-03-14T01:22:56;6.80;;;1.23;;
8540;SDS011;4308;51.294;6.590;2023-03-14T01:25:24;6.03;;;1.47;;
8540;SDS011;4308;51.294;6.590;2023-03-14T01:27:51;7.87;;;1.40;;
8540;SDS011;4308;51.294;6.590;2023-03-14T01:30:19;4.93;;;1.40;;
8540;SDS011;4308;51.294;6.590;2023-03-14T01:32:46;2.03;;;1.20;;
8540;SDS011;4308;51.294;6.590;2023-03-14T01:35:14;4.70;;;1.30;;
8540;SDS011;4308;51.294;6.590;2023-03-14T01:37:42;5.83;;;1.40;;
8540;SDS011;4308;51.294;6.590;2023-03-14T01:40:10;3.67;;;1.23;;
8540;SDS011;4308;51.294;6.590;2023-03-14T01:42:38;5.50;;;1.40;;
8540;SDS011;4308;51.294;6.590;2023-03-14T01:45:52;3.07;;;1.10;;
8540;SDS011;4308;51.294;6.590;2023-03-14T01:48:04;4.57;;;1.07;;
8540;SDS011;4308;51.294;6.590;2023-03-14T01:50:32;7.70;;;1.30;;
8540;SDS011;4308;51.294;6.590;2023-03-14T01:53:00;4.13;;;1.30;;
8540;SDS011;4308;51.294;6.590;2023-03-14T01:55:27;8.53;;;1.80;;
8540;SDS011;4308;51.294;6.590;2023-03-14T01:57:59;4.17;;;1.43;;
8540;SDS011;4308;51.294;6.590;2023-03-14T02:00:27;5.20;;;1.50;;
8540;SDS011;4308;51.294;6.590;2023-03-14T02:02:55;4.27;;;1.37;;
8540;SDS011;4308;51.294;6.590;2023-03-14T02:05:34;6.80;;;1.67;;
8540;SDS011;4308;51.294;6.590;2023-03-14T02:08:04;5.83;;;1.50;;
8540;SDS011;4308;51.294;6.590;2023-03-14T02:10:35;7.10;;;2.10;;
8540;SDS011;4308;51.294;6.590;2023-03-14T02:13:03;5.63;;;1.60;;
8540;SDS011;4308;51.294;6.590;2023-03-14T02:15:31;2.90;;;1.30;;
8540;SDS011;4308;51.294;6.590;2023-03-14T02:17:59;6.50;;;1.87;;
8540;SDS011;4308;51.294;6.590;2023-03-14T02:23:05;8.00;;;2.20;;
8540;SDS011;4308;51.294;6.590;2023-03-14T02:28:00;4.77;;;1.80;;
8540;SDS011;4308;51.294;6.590;2023-03-14T02:30:29;8.43;;;1.93;;
8540;SDS011;4308;51.294;6.590;2023-03-14T02:33:01;6.33;;;1.57;;
8540;SDS011;4308;51.294;6.590;2023-03-14T02:36:16;10.83;;;1.83;;
8540;SDS011;4308;51.294;6.590;2023-03-14T02:40:49;5.07;;;1.50;;
8540;SDS011;4308;51.294;6.590;2023-03-14T02:43:17;9.23;;;1.90;;
8540;SDS011;4308;51.294;6.590;2023-03-14T02:45:45;6.33;;;1.77;;
8540;SDS011;4308;51.294;6.590;2023-03-14T02:48:29;7.33;;;2.13;;
8540;SDS011;4308;51.294;6.590;2023-03-14T02:50:59;5.63;;;1.47;;
8540;SDS011;4308;51.294;6.590;2023-03-14T02:53:29;7.07;;;1.63;;
8540;SDS011;4308;51.294;6.590;2023-03-14T02:55:56;5.80;;;1.90;;
8540;SDS011;4308;51.294;6.590;2023-03-14T02:58:25;4.13;;;1.30;;
8540;SDS011;4308;51.294;6.590;2023-03-14T03:00:53;3.93;;;1.50;;
8540;SDS011;4308;51.294;6.590;2023-03-14T03:03:21;4.57;;;1.60;;
8540;SDS011;4308;51.294;6.590;2023-03-14T03:05:49;6.37;;;1.53;;
8540;SDS011;4308;51.294;6.590;2023-03-14T03:08:18;4.27;;;1.70;;
8540;SDS011;4308;51.294;6.590;2023-03-14T03:10:46;8.07;;;1.97;;
8540;SDS011;4308;51.294;6.590;2023-03-14T03:13:14;3.67;;;1.43;;
8540;SDS011;4308;51.294;6.590;2023-03-14T03:15:42;3.80;;;1.20;;
8540;SDS011;4308;51.294;6.590;2023-03-14T03:18:09;7.20;;;1.77;;
8540;SDS011;4308;51.294;6.590;2023-03-14T03:20:37;3.93;;;1.80;;
8540;SDS011;4308;51.294;6.590;2023-03-14T03:23:05;5.97;;;1.40;;
8540;SDS011;4308;51.294;6.590;2023-03-14T03:25:33;3.83;;;1.30;;
8540;SDS011;4308;51.294;6.590;2023-03-14T03:28:00;5.17;;;1.37;;
8540;SDS011;4308;51.294;6.590;2023-03-14T03:30:28;6.30;;;1.50;;
8540;SDS011;4308;51.294;6.590;2023-03-14T03:32:56;4.53;;;1.47;;
8540;SDS011;4308;51.294;6.590;2023-03-14T03:35:23;6.63;;;1.80;;
8540;SDS011;4308;51.294;6.590;2023-03-14T03:37:51;6.60;;;2.07;;
8540;SDS011;4308;51.294;6.590;2023-03-14T03:40:18;4.43;;;1.83;;
8540;SDS011;4308;51.294;6.590;2023-03-14T03:42:46;4.37;;;1.50;;
8540;SDS011;4308;51.294;6.590;2023-03-14T03:45:13;5.97;;;2.00;;
8540;SDS011;4308;51.294;6.590;2023-03-14T03:47:41;4.80;;;1.77;;
8540;SDS011;4308;51.294;6.590;2023-03-14T03:50:09;5.40;;;1.60;;
8540;SDS011;4308;51.294;6.590;2023-03-14T03:52:36;10.27;;;2.17;;
8540;SDS011;4308;51.294;6.590;2023-03-14T03:55:04;4.70;;;1.73;;
8540;SDS011;4308;51.294;6.590;2023-03-14T03:57:32;2.97;;;1.30;;
8540;SDS011;4308;51.294;6.590;2023-03-14T03:59:59;6.17;;;1.37;;
8540;SDS011;4308;51.294;6.590;2023-03-14T04:02:27;4.13;;;1.53;;
8540;SDS011;4308;51.294;6.590;2023-03-14T04:04:54;6.20;;;1.47;;
8540;SDS011;4308;51.294;6.590;2023-03-14T04:07:22;5.57;;;1.33;;
8540;SDS011;4308;51.294;6.590;2023-03-14T04:09:50;1.77;;;1.00;;
8540;SDS011;4308;51.294;6.590;2023-03-14T04:12:17;3.53;;;1.10;;
8540;SDS011;4308;51.294;6.590;2023-03-14T04:14:45;2.80;;;0.77;;
8540;SDS011;4308;51.294;6.590;2023-03-14T04:17:12;2.43;;;1.03;;
8540;SDS011;4308;51.294;6.590;2023-03-14T04:19:40;1.50;;;1.00;;
8540;SDS011;4308;51.294;6.590;2023-03-14T04:22:08;1.50;;;0.90;;
8540;SDS011;4308;51.294;6.590;2023-03-14T04:24:36;3.57;;;1.07;;
8540;SDS011;4308;51.294;6.590;2023-03-14T04:27:03;3.80;;;1.10;;
8540;SDS011;4308;51.294;6.590;2023-03-14T04:29:31;3.10;;;1.20;;
8540;SDS011;4308;51.294;6.590;2023-03-14T04:31:58;2.50;;;1.10;;
8540;SDS011;4308;51.294;6.590;2023-03-14T04:34:26;3.10;;;0.90;;
8540;SDS011;4308;51.294;6.590;2023-03-14T04:36:53;1.77;;;1.03;;
8540;SDS011;4308;51.294;6.590;2023-03-14T04:39:21;3.73;;;0.93;;
8540;SDS011;4308;51.294;6.590;2023-03-14T04:41:48;2.07;;;0.83;;
8540;SDS011;4308;51.294;6.590;2023-03-14T04:44:16;2.00;;;0.90;;
8540;SDS011;4308;51.294;6.590;2023-03-14T04:46:43;1.57;;;0.80;;
8540;SDS011;4308;51.294;6.590;2023-03-14T04:49:11;1.70;;;0.73;;
8540;SDS011;4308;51.294;6.590;2023-03-14T04:51:39;1.30;;;0.80;;
8540;SDS011;4308;51.294;6.590;2023-03-14T04:54:07;2.03;;;0.80;;
8540;SDS011;4308;51.294;6.590;2023-03-14T04:56:34;1.40;;;0.60;;
8540;SDS011;4308;51.294;6.590;2023-03-14T04:59:03;1.60;;;0.83;;
8540;SDS011;4308;51.294;6.590;2023-03-14T05:01:30;1.00;;;0.80;;
8540;SDS011;4308;51.294;6.590;2023-03-14T05:03:58;2.63;;;0.90;;
8540;SDS011;4308;51.294;6.590;2023-03-14T05:06:26;1.60;;;0.80;;
8540;SDS011;4308;51.294;6.590;2023-03-14T05:08:53;3.47;;;0.90;;
8540;SDS011;4308;51.294;6.590;2023-03-14T05:11:21;1.33;;;0.80;;
8540;SDS011;4308;51.294;6.590;2023-03-14T05:13:48;3.10;;;0.90;;
8540;SDS011;4308;51.294;6.590;2023-03-14T05:16:16;3.20;;;1.20;;
8540;SDS011;4308;51.294;6.590;2023-03-14T05:18:43;1.93;;;0.80;;
8540;SDS011;4308;51.294;6.590;2023-03-14T05:21:11;7.77;;;1.00;;
8540;SDS011;4308;51.294;6.590;2023-03-14T05:23:39;1.30;;;1.07;;
8540;SDS011;4308;51.294;6.590;2023-03-14T05:26:06;5.43;;;1.43;;
8540;SDS011;4308;51.294;6.590;2023-03-14T05:28:34;2.87;;;1.13;;
8540;SDS011;4308;51.294;6.590;2023-03-14T05:31:05;5.53;;;1.67;;
8540;SDS011;4308;51.294;6.590;2023-03-14T05:33:33;7.43;;;1.97;;
8540;SDS011;4308;51.294;6.590;2023-03-14T05:36:00;4.00;;;1.27;;
8540;SDS011;4308;51.294;6.590;2023-03-14T05:38:28;2.87;;;1.30;;
8540;SDS011;4308;51.294;6.590;2023-03-14T05:40:55;2.43;;;1.00;;
8540;SDS011;4308;51.294;6.590;2023-03-14T05:43:23;4.53;;;1.10;;
8540;SDS011;4308;51.294;6.590;2023-03-14T05:45:51;1.33;;;1.10;;
8540;SDS011;4308;51.294;6.590;2023-03-14T05:48:18;3.83;;;0.90;;
8540;SDS011;4308;51.294;6.590;2023-03-14T05:50:46;2.20;;;1.00;;
8540;SDS011;4308;51.294;6.590;2023-03-14T05:53:13;1.83;;;0.90;;
8540;SDS011;4308;51.294;6.590;2023-03-14T05:55:41;1.33;;;0.70;;
8540;SDS011;4308;51.294;6.590;2023-03-14T05:58:08;2.13;;;1.20;;
8540;SDS011;4308;51.294;6.590;2023-03-14T06:00:36;1.23;;;0.90;;
8540;SDS011;4308;51.294;6.590;2023-03-14T06:03:03;1.20;;;0.70;;
8540;SDS011;4308;51.294;6.590;2023-03-14T06:05:33;1.03;;;0.90;;
8540;SDS011;4308;51.294;6.590;2023-03-14T06:08:01;2.03;;;0.80;;
8540;SDS011;4308;51.294;6.590;2023-03-14T06:10:28;1.53;;;1.00;;
8540;SDS011;4308;51.294;6.590;2023-03-14T06:12:56;1.53;;;0.73;;
8540;SDS011;4308;51.294;6.590;2023-03-14T06:15:23;0.70;;;0.70;;
8540;SDS011;4308;51.294;6.590;2023-03-14T06:17:51;2.00;;;0.67;;
8540;SDS011;4308;51.294;6.590;2023-03-14T06:20:20;0.80;;;0.67;;
8540;SDS011;4308;51.294;6.590;2023-03-14T06:22:48;0.73;;;0.73;;
8540;SDS011;4308;51.294;6.590;2023-03-14T06:25:16;0.60;;;0.60;;
8540;SDS011;4308;51.294;6.590;2023-03-14T06:27:43;2.10;;;0.70;;
8540;SDS011;4308;51.294;6.590;2023-03-14T06:30:11;1.00;;;0.80;;
8540;SDS011;4308;51.294;6.590;2023-03-14T06:32:39;1.30;;;0.50;;
8540;SDS011;4308;51.294;6.590;2023-03-14T06:35:07;0.50;;;0.50;;
8540;SDS011;4308;51.294;6.590;2023-03-14T06:37:34;0.97;;;0.63;;
8540;SDS011;4308;51.294;6.590;2023-03-14T06:40:02;2.07;;;0.70;;
8540;SDS011;4308;51.294;6.590;2023-03-14T06:42:30;0.93;;;0.60;;
8540;SDS011;4308;51.294;6.590;2023-03-14T06:44:57;0.83;;;0.70;;
8540;SDS011;4308;51.294;6.590;2023-03-14T06:47:25;0.60;;;0.60;;
8540;SDS011;4308;51.294;6.590;2023-03-14T06:49:52;1.63;;;0.67;;
8540;SDS011;4308;51.294;6.590;2023-03-14T06:52:20;1.43;;;0.50;;
8540;SDS011;4308;51.294;6.590;2023-03-14T06:54:47;0.67;;;0.60;;
8540;SDS011;4308;51.294;6.590;2023-03-14T06:57:15;1.63;;;0.60;;
8540;SDS011;4308;51.294;6.590;2023-03-14T06:59:42;0.63;;;0.63;;
8540;SDS011;4308;51.294;6.590;2023-03-14T07:02:10;0.60;;;0.60;;
8540;SDS011;4308;51.294;6.590;2023-03-14T07:04:38;1.07;;;0.80;;
8540;SDS011;4308;51.294;6.590;2023-03-14T07:07:05;1.83;;;0.60;;
8540;SDS011;4308;51.294;6.590;2023-03-14T07:09:34;1.67;;;0.70;;
8540;SDS011;4308;51.294;6.590;2023-03-14T07:12:02;0.70;;;0.70;;
8540;SDS011;4308;51.294;6.590;2023-03-14T07:14:30;1.03;;;0.93;;
8540;SDS011;4308;51.294;6.590;2023-03-14T07:16:57;1.03;;;0.80;;
8540;SDS011;4308;51.294;6.590;2023-03-14T07:19:25;3.43;;;0.90;;
8540;SDS011;4308;51.294;6.590;2023-03-14T07:21:52;0.70;;;0.70;;
8540;SDS011;4308;51.294;6.590;2023-03-14T07:24:20;1.20;;;0.73;;
8540;SDS011;4308;51.294;6.590;2023-03-14T07:26:47;0.90;;;0.80;;
8540;SDS011;4308;51.294;6.590;2023-03-14T07:29:15;1.90;;;0.77;;
8540;SDS011;4308;51.294;6.590;2023-03-14T07:31:42;1.43;;;1.00;;
8540;SDS011;4308;51.294;6.590;2023-03-14T07:34:10;1.40;;;1.10;;
8540;SDS011;4308;51.294;6.590;2023-03-14T07:36:38;1.93;;;1.00;;
8540;SDS011;4308;51.294;6.590;2023-03-14T07:39:05;1.63;;;0.90;;
8540;SDS011;4308;51.294;6.590;2023-03-14T07:41:33;1.40;;;1.00;;
8540;SDS011;4308;51.294;6.590;2023-03-14T07:44:00;1.10;;;1.00;;
8540;SDS011;4308;51.294;6.590;2023-03-14T07:46:28;0.90;;;0.90;;
8540;SDS011;4308;51.294;6.590;2023-03-14T07:48:56;1.93;;;1.10;;
8540;SDS011;4308;51.294;6.590;2023-03-14T07:51:23;0.90;;;0.90;;
8540;SDS011;4308;51.294;6.590;2023-03-14T07:53:51;1.90;;;1.10;;
8540;SDS011;4308;51.294;6.590;2023-03-14T07:56:18;2.43;;;1.20;;
8540;SDS011;4308;51.294;6.590;2023-03-14T07:58:46;3.60;;;1.33;;
8540;SDS011;4308;51.294;6.590;2023-03-14T08:01:13;1.27;;;1.17;;
8540;SDS011;4308;51.294;6.590;2023-03-14T08:03:41;2.30;;;1.47;;
8540;SDS011;4308;51.294;6.590;2023-03-14T08:06:09;1.70;;;1.20;;
8540;SDS011;4308;51.294;6.590;2023-03-14T08:08:36;1.53;;;1.00;;
8540;SDS011;4308;51.294;6.590;2023-03-14T08:11:04;1.53;;;1.30;;
8540;SDS011;4308;51.294;6.590;2023-03-14T08:13:32;1.87;;;1.03;;
8540;SDS011;4308;51.294;6.590;2023-03-14T08:16:00;2.00;;;1.10;;
8540;SDS011;4308;51.294;6.590;2023-03-14T08:18:28;1.53;;;1.27;;
8540;SDS011;4308;51.294;6.590;2023-03-14T08:20:55;1.00;;;0.97;;
8540;SDS011;4308;51.294;6.590;2023-03-14T08:23:23;2.70;;;1.40;;
8540;SDS011;4308;51.294;6.590;2023-03-14T08:25:51;2.60;;;1.40;;
8540;SDS011;4308;51.294;6.590;2023-03-14T08:28:19;1.37;;;1.27;;
8540;SDS011;4308;51.294;6.590;2023-03-14T08:30:46;1.20;;;1.00;;
8540;SDS011;4308;51.294;6.590;2023-03-14T08:33:14;1.47;;;1.37;;
8540;SDS011;4308;51.294;6.590;2023-03-14T08:35:42;2.10;;;1.17;;
8540;SDS011;4308;51.294;6.590;2023-03-14T08:38:09;1.97;;;1.37;;
8540;SDS011;4308;51.294;6.590;2023-03-14T08:40:37;4.97;;;1.40;;
8540;SDS011;4308;51.294;6.590;2023-03-14T08:43:04;1.00;;;0.97;;
8540;SDS011;4308;51.294;6.590;2023-03-14T08:45:32;2.17;;;1.10;;
8540;SDS011;4308;51.294;6.590;2023-03-14T08:47:59;1.20;;;1.03;;
8540;SDS011;4308;51.294;6.590;2023-03-14T08:50:27;2.03;;;1.20;;
8540;SDS011;4308;51.294;6.590;2023-03-14T08:52:55;1.40;;;0.97;;
8540;SDS011;4308;51.294;6.590;2023-03-14T08:55:22;1.30;;;1.17;;
8540;SDS011;4308;51.294;6.590;2023-03-14T08:57:50;1.27;;;1.17;;
8540;SDS011;4308;51.294;6.590;2023-03-14T09:00:20;1.80;;;1.07;;
8540;SDS011;4308;51.294;6.590;2023-03-14T09:02:59;1.70;;;1.30;;
8540;SDS011;4308;51.294;6.590;2023-03-14T09:05:27;1.70;;;1.00;;
8540;SDS011;4308;51.294;6.590;2023-03-14T09:07:54;0.80;;;0.80;;
8540;SDS011;4308;51.294;6.590;2023-03-14T09:10:22;0.60;;;0.60;;
8540;SDS011;4308;51.294;6.590;2023-03-14T09:12:49;0.60;;;0.60;;
8540;SDS011;4308;51.294;6.590;2023-03-14T09:15:17;2.07;;;0.73;;
8540;SDS011;4308;51.294;6.590;2023-03-14T09:17:44;0.60;;;0.60;;
8540;SDS011;4308;51.294;6.590;2023-03-14T09:20:12;1.60;;;0.60;;
8540;SDS011;4308;51.294;6.590;2023-03-14T09:22:40;0.80;;;0.80;;
8540;SDS011;4308;51.294;6.590;2023-03-14T09:25:07;0.70;;;0.70;;
8540;SDS011;4308;51.294;6.590;2023-03-14T09:27:35;0.60;;;0.60;;
8540;SDS011;4308;51.294;6.590;2023-03-14T09:30:03;1.73;;;0.80;;
8540;SDS011;4308;51.294;6.590;2023-03-14T09:32:30;1.10;;;0.80;;
8540;SDS011;4308;51.294;6.590;2023-03-14T09:34:58;0.80;;;0.80;;
8540;SDS011;4308;51.294;6.590;2023-03-14T09:37:26;1.00;;;1.00;;
8540;SDS011;4308;51.294;6.590;2023-03-14T09:39:53;2.33;;;0.97;;
8540;SDS011;4308;51.294;6.590;2023-03-14T09:42:22;1.60;;;1.37;;
8540;SDS011;4308;51.294;6.590;2023-03-14T09:45:00;1.23;;;1.20;;
8540;SDS011;4308;51.294;6.590;2023-03-14T09:47:28;1.97;;;1.17;;
8540;SDS011;4308;51.294;6.590;2023-03-14T09:49:56;1.23;;;1.13;;
8540;SDS011;4308;51.294;6.590;2023-03-14T09:52:29;2.93;;;1.43;;
8540;SDS011;4308;51.294;6.590;2023-03-14T09:54:59;1.33;;;0.93;;
8540;SDS011;4308;51.294;6.590;2023-03-14T09:57:28;1.70;;;1.33;;
8540;SDS011;4308;51.294;6.590;2023-03-14T09:59:57;1.50;;;1.40;;
8540;SDS011;4308;51.294;6.590;2023-03-14T10:02:28;1.50;;;1.20;;
8540;SDS011;4308;51.294;6.590;2023-03-14T10:04:59;1.40;;;1.30;;
8540;SDS011;4308;51.294;6.590;2023-03-14T10:07:32;1.33;;;1.23;;
8540;SDS011;4308;51.294;6.590;2023-03-14T10:10:00;2.87;;;1.30;;
8540;SDS011;4308;51.294;6.590;2023-03-14T10:12:31;1.63;;;1.30;;
8540;SDS011;4308;51.294;6.590;2023-03-14T10:15:03;2.90;;;1.40;;
8540;SDS011;4308;51.294;6.590;2023-03-14T10:17:37;1.30;;;1.20;;
8540;SDS011;4308;51.294;6.590;2023-03-14T10:20:05;1.90;;;1.40;;
8540;SDS011;4308;51.294;6.590;2023-03-14T10:22:33;2.30;;;1.33;;
8540;SDS011;4308;51.294;6.590;2023-03-14T10:25:03;3.17;;;1.30;;
8540;SDS011;4308;51.294;6.590;2023-03-14T10:27:32;1.30;;;1.20;;
8540;SDS011;4308;51.294;6.590;2023-03-14T10:30:03;3.43;;;1.10;;
8540;SDS011;4308;51.294;6.590;2023-03-14T10:32:33;1.47;;;1.23;;
8540;SDS011;4308;51.294;6.590;2023-03-14T10:37:50;2.93;;;1.50;;
8540;SDS011;4308;51.294;6.590;2023-03-14T10:40:19;1.90;;;1.43;;
8540;SDS011;4308;51.294;6.590;2023-03-14T10:42:46;2.00;;;1.20;;
8540;SDS011;4308;51.294;6.590;2023-03-14T10:45:25;1.77;;;1.60;;
8540;SDS011;4308;51.294;6.590;2023-03-14T10:47:54;5.97;;;1.50;;
8540;SDS011;4308;51.294;6.590;2023-03-14T10:50:26;3.90;;;1.30;;
8540;SDS011;4308;51.294;6.590;2023-03-14T10:52:55;2.77;;;1.30;;
8540;SDS011;4308;51.294;6.590;2023-03-14T10:55:29;3.27;;;1.10;;
8540;SDS011;4308;51.294;6.590;2023-03-14T10:58:28;4.07;;;1.47;;
8540;SDS011;4308;51.294;6.590;2023-03-14T11:03:28;8.00;;;1.67;;
8540;SDS011;4308;51.294;6.590;2023-03-14T11:06:03;3.20;;;1.20;;
8540;SDS011;4308;51.294;6.590;2023-03-14T11:08:51;1.93;;;1.10;;
8540;SDS011;4308;51.294;6.590;2023-03-14T11:11:21;4.97;;;1.37;;
8540;SDS011;4308;51.294;6.590;2023-03-14T11:22:10;1.73;;;1.23;;
8540;SDS011;4308;51.294;6.590;2023-03-14T11:27:25;1.87;;;1.17;;
8540;SDS011;4308;51.294;6.590;2023-03-14T11:34:55;3.47;;;1.20;;
8540;SDS011;4308;51.294;6.590;2023-03-14T11:37:33;2.90;;;1.00;;
8540;SDS011;4308;51.294;6.590;2023-03-14T11:42:28;3.67;;;1.07;;
8540;SDS011;4308;51.294;6.590;2023-03-14T11:44:56;1.87;;;0.97;;
8540;SDS011;4308;51.294;6.590;2023-03-14T11:50:25;4.47;;;1.00;;
8540;SDS011;4308;51.294;6.590;2023-03-14T11:52:55;3.03;;;1.00;;
8540;SDS011;4308;51.294;6.590;2023-03-14T11:55:25;3.43;;;1.27;;
8540;SDS011;4308;51.294;6.590;2023-03-14T11:57:56;3.83;;;1.30;;
8540;SDS011;4308;51.294;6.590;2023-03-14T12:00:25;1.60;;;1.20;;
8540;SDS011;4308;51.294;6.590;2023-03-14T12:03:01;3.10;;;1.20;;
8540;SDS011;4308;51.294;6.590;2023-03-14T12:05:31;2.47;;;1.53;;
8540;SDS011;4308;51.294;6.590;2023-03-14T12:10:29;5.97;;;1.10;;
8540;SDS011;4308;51.294;6.590;2023-03-14T12:12:59;3.90;;;1.27;;
8540;SDS011;4308;51.294;6.590;2023-03-14T12:15:26;3.87;;;1.20;;
8540;SDS011;4308;51.294;6.590;2023-03-14T12:17:54;2.17;;;1.20;;
8540;SDS011;4308;51.294;6.590;2023-03-14T12:20:23;2.80;;;1.13;;
8540;SDS011;4308;51.294;6.590;2023-03-14T12:22:53;7.40;;;1.80;;
8540;SDS011;4308;51.294;6.590;2023-03-14T12:25:22;2.70;;;1.33;;
8540;SDS011;4308;51.294;6.590;2023-03-14T12:30:26;6.87;;;1.30;;
8540;SDS011;4308;51.294;6.590;2023-03-14T12:35:38;5.23;;;1.40;;
8540;SDS011;4308;51.294;6.590;2023-03-14T12:38:09;2.97;;;1.10;;
8540;SDS011;4308;51.294;6.590;2023-03-14T12:40:39;5.93;;;1.33;;
8540;SDS011;4308;51.294;6.590;2023-03-14T12:43:23;3.17;;;1.40;;
8540;SDS011;4308;51.294;6.590;2023-03-14T12:48:34;8.17;;;1.67;;
8540;SDS011;4308;51.294;6.590;2023-03-14T12:51:11;4.80;;;1.20;;
8540;SDS011;4308;51.294;6.590;2023-03-14T12:59:10;7.63;;;1.93;;
8540;SDS011;4308;51.294;6.590;2023-03-14T13:01:59;17.30;;;2.83;;
8540;SDS011;4308;51.294;6.590;2023-03-14T13:04:28;10.27;;;2.30;;
8540;SDS011;4308;51.294;6.590;2023-03-14T13:07:10;11.03;;;2.33;;
8540;SDS011;4308;51.294;6.590;2023-03-14T13:12:17;12.27;;;2.60;;
8540;SDS011;4308;51.294;6.590;2023-03-14T13:14:45;11.50;;;2.00;;
8540;SDS011;4308;51.294;6.590;2023-03-14T13:17:14;17.80;;;2.67;;
8540;SDS011;4308;51.294;6.590;2023-03-14T13:20:03;10.07;;;2.70;;
8540;SDS011;4308;51.294;6.590;2023-03-14T13:22:33;10.67;;;2.40;;
8540;SDS011;4308;51.294;6.590;2023-03-14T13:25:02;18.10;;;3.57;;
8540;SDS011;4308;51.294;6.590;2023-03-14T13:27:32;12.40;;;2.47;;
8540;SDS011;4308;51.294;6.590;2023-03-14T13:32:47;14.37;;;3.10;;
8540;SDS011;4308;51.294;6.590;2023-03-14T13:35:26;10.53;;;2.63;;
8540;SDS011;4308;51.294;6.590;2023-03-14T13:37:58;12.07;;;3.07;;
8540;SDS011;4308;51.294;6.590;2023-03-14T13:40:42;12.47;;;2.60;;
8540;SDS011;4308;51.294;6.590;2023-03-14T13:43:15;14.33;;;3.67;;
8540;SDS011;4308;51.294;6.590;2023-03-14T13:45:43;17.47;;;2.97;;
8540;SDS011;4308;51.294;6.590;2023-03-14T13:48:12;17.03;;;3.67;;
8540;SDS011;4308;51.294;6.590;2023-03-14T13:50:44;15.60;;;4.10;;
8540;SDS011;4308;51.294;6.590;2023-03-14T13:53:11;8.40;;;1.80;;
8540;SDS011;4308;51.294;6.590;2023-03-14T13:55:39;10.73;;;2.70;;
8540;SDS011;4308;51.294;6.590;2023-03-14T13:58:28;12.83;;;3.17;;
8540;SDS011;4308;51.294;6.590;2023-03-14T14:00:55;15.97;;;2.97;;
8540;SDS011;4308;51.294;6.590;2023-03-14T14:03:24;8.83;;;2.70;;
8540;SDS011;4308;51.294;6.590;2023-03-14T14:05:53;17.57;;;2.80;;
8540;SDS011;4308;51.294;6.590;2023-03-14T14:08:21;13.60;;;3.20;;
8540;SDS011;4308;51.294;6.590;2023-03-14T14:10:49;10.80;;;2.73;;
8540;SDS011;4308;51.294;6.590;2023-03-14T14:13:17;9.83;;;2.53;;
8540;SDS011;4308;51.294;6.590;2023-03-14T14:15:48;9.13;;;2.50;;
8540;SDS011;4308;51.294;6.590;2023-03-14T14:18:17;14.10;;;2.73;;
8540;SDS011;4308;51.294;6.590;2023-03-14T14:20:46;12.17;;;2.50;;
8540;SDS011;4308;51.294;6.590;2023-03-14T14:23:21;21.13;;;2.70;;
8540;SDS011;4308;51.294;6.590;2023-03-14T14:25:49;9.07;;;1.97;;
8540;SDS011;4308;51.294;6.590;2023-03-14T14:28:20;10.97;;;2.23;;
8540;SDS011;4308;51.294;6.590;2023-03-14T14:33:39;7.27;;;2.07;;
8540;SDS011;4308;51.294;6.590;2023-03-14T14:39:29;6.53;;;1.87;;
8540;SDS011;4308;51.294;6.590;2023-03-14T14:41:39;8.47;;;1.70;;
8540;SDS011;4308;51.294;6.590;2023-03-14T14:44:10;5.60;;;1.23;;
8540;SDS011;4308;51.294;6.590;2023-03-14T14:46:39;7.73;;;2.03;;
8540;SDS011;4308;51.294;6.590;2023-03-14T14:49:10;5.67;;;1.43;;
8540;SDS011;4308;51.294;6.590;2023-03-14T14:51:41;7.30;;;2.00;;
8540;SDS011;4308;51.294;6.590;2023-03-14T14:54:11;6.03;;;1.50;;
8540;SDS011;4308;51.294;6.590;2023-03-14T14:56:39;4.60;;;1.40;;
8540;SDS011;4308;51.294;6.590;2023-03-14T14:59:17;7.23;;;1.63;;
8540;SDS011;4308;51.294;6.590;2023-03-14T15:01:45;7.60;;;1.80;;
8540;SDS011;4308;51.294;6.590;2023-03-14T15:04:13;4.67;;;1.40;;
8540;SDS011;4308;51.294;6.590;2023-03-14T15:06:42;8.27;;;1.83;;
8540;SDS011;4308;51.294;6.590;2023-03-14T15:09:10;7.00;;;1.63;;
8540;SDS011;4308;51.294;6.590;2023-03-14T15:11:38;10.33;;;1.93;;
8540;SDS011;4308;51.294;6.590;2023-03-14T15:14:06;3.60;;;1.23;;
8540;SDS011;4308;51.294;6.590;2023-03-14T15:16:33;7.93;;;1.67;;
8540;SDS011;4308;51.294;6.590;2023-03-14T15:19:02;5.77;;;1.90;;
8540;SDS011;4308;51.294;6.590;2023-03-14T15:21:49;5.53;;;1.80;;
8540;SDS011;4308;51.294;6.590;2023-03-14T15:24:16;8.83;;;1.70;;
8540;SDS011;4308;51.294;6.590;2023-03-14T15:26:44;8.80;;;1.70;;
8540;SDS011;4308;51.294;6.590;2023-03-14T15:29:11;3.80;;;1.60;;
8540;SDS011;4308;51.294;6.590;2023-03-14T15:31:40;3.33;;;1.57;;
8540;SDS011;4308;51.294;6.590;2023-03-14T15:34:08;6.93;;;2.10;;
8540;SDS011;4308;51.294;6.590;2023-03-14T15:36:36;5.57;;;2.00;;
8540;SDS011;4308;51.294;6.590;2023-03-14T15:39:04;3.63;;;1.20;;
8540;SDS011;4308;51.294;6.590;2023-03-14T15:41:32;8.47;;;1.77;;
8540;SDS011;4308;51.294;6.590;2023-03-14T15:44:00;5.37;;;1.50;;
8540;SDS011;4308;51.294;6.590;2023-03-14T15:46:27;9.17;;;2.77;;
8540;SDS011;4308;51.294;6.590;2023-03-14T15:48:57;7.70;;;1.80;;
8540;SDS011;4308;51.294;6.590;2023-03-14T15:51:24;3.70;;;1.50;;
8540;SDS011;4308;51.294;6.590;2023-03-14T15:53:52;6.53;;;1.93;;
8540;SDS011;4308;51.294;6.590;2023-03-14T15:56:20;3.57;;;1.37;;
8540;SDS011;4308;51.294;6.590;2023-03-14T15:58:47;9.90;;;1.40;;
8540;SDS011;4308;51.294;6.590;2023-03-14T16:01:15;6.93;;;1.63;;
8540;SDS011;4308;51.294;6.590;2023-03-14T16:03:43;2.73;;;1.13;;
8540;SDS011;4308;51.294;6.590;2023-03-14T16:06:11;5.73;;;1.70;;
8540;SDS011;4308;51.294;6.590;2023-03-14T16:08:39;5.70;;;1.43;;
8540;SDS011;4308;51.294;6.590;2023-03-14T16:11:08;2.87;;;1.20;;
8540;SDS011;4308;51.294;6.590;2023-03-14T16:13:36;7.87;;;2.10;;
8540;SDS011;4308;51.294;6.590;2023-03-14T16:16:04;6.97;;;1.40;;
8540;SDS011;4308;51.294;6.590;2023-03-14T16:18:33;7.47;;;1.77;;
8540;SDS011;4308;51.294;6.590;2023-03-14T16:21:03;3.33;;;1.40;;
8540;SDS011;4308;51.294;6.590;2023-03-14T16:23:31;5.80;;;1.40;;
8540;SDS011;4308;51.294;6.590;2023-03-14T16:25:59;7.07;;;2.27;;
8540;SDS011;4308;51.294;6.590;2023-03-14T16:28:26;8.33;;;1.60;;